sensor_id;sensor_type;location;lat;lon;timestamp;P1;durP1;ratioP1;P2;durP2;ratioP2
22849;SDS011;11591;44.792;10.358;2022-11-30T00:00:20;52.47;;;23.85;;
22849;SDS011;11591;44.792;10.358;2022-11-30T00:02:46;55.28;;;25.17;;
22849;SDS011;11591;44.792;10.358;2022-11-30T00:05:20;52.45;;;24.67;;
22849;SDS011;11591;44.792;10.358;2022-11-30T00:07:46;51.35;;;24.42;;
22849;SDS011;11591;44.792;10.358;2022-11-30T00:10:13;54.42;;;25.33;;
22849;SDS011;11591;44.792;10.358;2022-11-30T00:12:39;49.65;;;23.65;;
22849;SDS011;11591;44.792;10.358;2022-11-30T00:15:08;49.92;;;24.10;;
22849;SDS011;11591;44.792;10.358;2022-11-30T00:17:38;51.60;;;23.83;;
22849;SDS011;11591;44.792;10.358;2022-11-30T00:20:13;48.42;;;22.92;;
22849;SDS011;11591;44.792;10.358;2022-11-30T00:22:40;52.35;;;24.20;;
22849;SDS011;11591;44.792;10.358;2022-11-30T00:25:06;51.53;;;23.92;;
22849;SDS011;11591;44.792;10.358;2022-11-30T00:27:33;64.82;;;29.55;;
22849;SDS011;11591;44.792;10.358;2022-11-30T00:29:59;56.15;;;27.23;;
22849;SDS011;11591;44.792;10.358;2022-11-30T00:32:25;53.63;;;25.55;;
22849;SDS011;11591;44.792;10.358;2022-11-30T00:34:51;51.75;;;24.15;;
22849;SDS011;11591;44.792;10.358;2022-11-30T00:37:18;49.13;;;23.23;;
22849;SDS011;11591;44.792;10.358;2022-11-30T00:39:44;51.15;;;25.70;;
22849;SDS011;11591;44.792;10.358;2022-11-30T00:42:09;51.55;;;24.83;;
22849;SDS011;11591;44.792;10.358;2022-11-30T00:44:35;52.35;;;25.08;;
22849;SDS011;11591;44.792;10.358;2022-11-30T00:47:01;56.03;;;24.70;;
22849;SDS011;11591;44.792;10.358;2022-11-30T00:49:27;49.42;;;24.02;;
22849;SDS011;11591;44.792;10.358;2022-11-30T00:51:52;49.45;;;24.15;;
22849;SDS011;11591;44.792;10.358;2022-11-30T00:54:18;49.28;;;24.60;;
22849;SDS011;11591;44.792;10.358;2022-11-30T00:56:44;48.75;;;24.05;;
22849;SDS011;11591;44.792;10.358;2022-11-30T00:59:11;47.10;;;23.13;;
22849;SDS011;11591;44.792;10.358;2022-11-30T01:01:37;49.25;;;24.60;;
22849;SDS011;11591;44.792;10.358;2022-11-30T01:04:02;51.60;;;23.75;;
22849;SDS011;11591;44.792;10.358;2022-11-30T01:06:29;48.10;;;23.95;;
22849;SDS011;11591;44.792;10.358;2022-11-30T01:08:55;50.10;;;24.02;;
22849;SDS011;11591;44.792;10.358;2022-11-30T01:11:22;48.40;;;23.58;;
22849;SDS011;11591;44.792;10.358;2022-11-30T01:13:50;48.78;;;23.20;;
22849;SDS011;11591;44.792;10.358;2022-11-30T01:16:18;49.38;;;23.25;;
22849;SDS011;11591;44.792;10.358;2022-11-30T01:18:49;50.60;;;23.92;;
22849;SDS011;11591;44.792;10.358;2022-11-30T01:21:16;47.17;;;23.70;;
22849;SDS011;11591;44.792;10.358;2022-11-30T01:23:44;51.00;;;23.58;;
22849;SDS011;11591;44.792;10.358;2022-11-30T01:26:11;49.33;;;23.83;;
22849;SDS011;11591;44.792;10.358;2022-11-30T01:28:37;48.13;;;23.85;;
22849;SDS011;11591;44.792;10.358;2022-11-30T01:31:08;50.83;;;23.52;;
22849;SDS011;11591;44.792;10.358;2022-11-30T01:33:35;50.65;;;24.40;;
22849;SDS011;11591;44.792;10.358;2022-11-30T01:36:05;52.22;;;24.73;;
22849;SDS011;11591;44.792;10.358;2022-11-30T01:38:37;53.15;;;25.60;;
22849;SDS011;11591;44.792;10.358;2022-11-30T01:41:05;65.50;;;30.60;;
22849;SDS011;11591;44.792;10.358;2022-11-30T01:43:51;54.88;;;24.58;;
22849;SDS011;11591;44.792;10.358;2022-11-30T01:48:58;50.28;;;24.65;;
22849;SDS011;11591;44.792;10.358;2022-11-30T01:51:28;47.90;;;24.27;;
22849;SDS011;11591;44.792;10.358;2022-11-30T01:54:02;44.90;;;22.52;;
22849;SDS011;11591;44.792;10.358;2022-11-30T01:56:30;48.78;;;24.25;;
22849;SDS011;11591;44.792;10.358;2022-11-30T01:58:56;52.42;;;24.33;;
22849;SDS011;11591;44.792;10.358;2022-11-30T02:01:22;48.72;;;24.17;;
22849;SDS011;11591;44.792;10.358;2022-11-30T02:03:54;49.22;;;23.85;;
22849;SDS011;11591;44.792;10.358;2022-11-30T02:06:31;57.47;;;25.63;;
22849;SDS011;11591;44.792;10.358;2022-11-30T02:08:58;52.40;;;24.77;;
22849;SDS011;11591;44.792;10.358;2022-11-30T02:11:24;53.28;;;24.25;;
22849;SDS011;11591;44.792;10.358;2022-11-30T02:30:45;47.60;;;23.77;;
22849;SDS011;11591;44.792;10.358;2022-11-30T02:33:15;52.15;;;24.02;;
22849;SDS011;11591;44.792;10.358;2022-11-30T02:35:46;47.83;;;23.92;;
22849;SDS011;11591;44.792;10.358;2022-11-30T02:38:22;49.38;;;23.70;;
22849;SDS011;11591;44.792;10.358;2022-11-30T02:40:50;46.65;;;21.98;;
22849;SDS011;11591;44.792;10.358;2022-11-30T02:43:16;47.50;;;23.08;;
22849;SDS011;11591;44.792;10.358;2022-11-30T02:48:37;47.85;;;23.73;;
22849;SDS011;11591;44.792;10.358;2022-11-30T02:51:11;50.42;;;22.98;;
22849;SDS011;11591;44.792;10.358;2022-11-30T02:53:41;47.72;;;23.90;;
22849;SDS011;11591;44.792;10.358;2022-11-30T02:56:07;47.58;;;23.90;;
22849;SDS011;11591;44.792;10.358;2022-11-30T02:58:33;47.83;;;23.42;;
22849;SDS011;11591;44.792;10.358;2022-11-30T03:01:00;46.33;;;23.67;;
22849;SDS011;11591;44.792;10.358;2022-11-30T03:03:25;48.15;;;24.23;;
22849;SDS011;11591;44.792;10.358;2022-11-30T03:05:51;49.60;;;24.88;;
22849;SDS011;11591;44.792;10.358;2022-11-30T03:08:17;46.35;;;24.73;;
22849;SDS011;11591;44.792;10.358;2022-11-30T03:10:43;46.33;;;23.50;;
22849;SDS011;11591;44.792;10.358;2022-11-30T03:13:08;49.13;;;24.88;;
22849;SDS011;11591;44.792;10.358;2022-11-30T03:15:34;49.75;;;24.77;;
22849;SDS011;11591;44.792;10.358;2022-11-30T03:18:03;48.17;;;25.40;;
22849;SDS011;11591;44.792;10.358;2022-11-30T03:20:29;50.35;;;24.92;;
22849;SDS011;11591;44.792;10.358;2022-11-30T03:22:59;53.80;;;25.42;;
22849;SDS011;11591;44.792;10.358;2022-11-30T03:25:25;47.22;;;24.20;;
22849;SDS011;11591;44.792;10.358;2022-11-30T03:27:51;51.53;;;24.30;;
22849;SDS011;11591;44.792;10.358;2022-11-30T03:30:17;49.05;;;24.52;;
22849;SDS011;11591;44.792;10.358;2022-11-30T03:32:43;51.03;;;24.70;;
22849;SDS011;11591;44.792;10.358;2022-11-30T03:35:09;49.28;;;23.85;;
22849;SDS011;11591;44.792;10.358;2022-11-30T03:37:35;48.08;;;24.05;;
22849;SDS011;11591;44.792;10.358;2022-11-30T03:40:00;48.05;;;24.85;;
22849;SDS011;11591;44.792;10.358;2022-11-30T03:42:27;47.95;;;24.50;;
22849;SDS011;11591;44.792;10.358;2022-11-30T03:44:52;47.65;;;23.83;;
22849;SDS011;11591;44.792;10.358;2022-11-30T03:47:18;49.70;;;24.30;;
22849;SDS011;11591;44.792;10.358;2022-11-30T03:49:44;45.75;;;23.92;;
22849;SDS011;11591;44.792;10.358;2022-11-30T03:52:10;46.45;;;24.30;;
22849;SDS011;11591;44.792;10.358;2022-11-30T03:54:35;51.70;;;24.23;;
22849;SDS011;11591;44.792;10.358;2022-11-30T03:57:01;50.08;;;25.33;;
22849;SDS011;11591;44.792;10.358;2022-11-30T03:59:27;47.53;;;24.05;;
22849;SDS011;11591;44.792;10.358;2022-11-30T04:01:53;48.90;;;24.17;;
22849;SDS011;11591;44.792;10.358;2022-11-30T04:04:19;52.35;;;26.58;;
22849;SDS011;11591;44.792;10.358;2022-11-30T04:06:45;48.65;;;25.17;;
22849;SDS011;11591;44.792;10.358;2022-11-30T04:09:11;45.83;;;24.83;;
22849;SDS011;11591;44.792;10.358;2022-11-30T04:11:37;53.50;;;25.42;;
22849;SDS011;11591;44.792;10.358;2022-11-30T04:14:02;47.92;;;25.80;;
22849;SDS011;11591;44.792;10.358;2022-11-30T04:16:28;47.58;;;24.55;;
22849;SDS011;11591;44.792;10.358;2022-11-30T04:18:54;45.45;;;24.65;;
22849;SDS011;11591;44.792;10.358;2022-11-30T04:21:20;45.20;;;23.48;;
22849;SDS011;11591;44.792;10.358;2022-11-30T04:23:46;52.38;;;25.67;;
22849;SDS011;11591;44.792;10.358;2022-11-30T04:26:12;48.25;;;25.42;;
22849;SDS011;11591;44.792;10.358;2022-11-30T04:28:40;50.90;;;25.60;;
22849;SDS011;11591;44.792;10.358;2022-11-30T04:31:06;50.72;;;24.85;;
22849;SDS011;11591;44.792;10.358;2022-11-30T04:33:32;47.35;;;24.48;;
22849;SDS011;11591;44.792;10.358;2022-11-30T04:35:59;46.67;;;24.70;;
22849;SDS011;11591;44.792;10.358;2022-11-30T04:38:27;48.45;;;24.75;;
22849;SDS011;11591;44.792;10.358;2022-11-30T04:40:54;48.30;;;24.00;;
22849;SDS011;11591;44.792;10.358;2022-11-30T04:43:20;48.08;;;24.83;;
22849;SDS011;11591;44.792;10.358;2022-11-30T04:45:46;48.47;;;23.92;;
22849;SDS011;11591;44.792;10.358;2022-11-30T04:48:13;55.03;;;26.90;;
22849;SDS011;11591;44.792;10.358;2022-11-30T04:50:40;51.20;;;26.35;;
22849;SDS011;11591;44.792;10.358;2022-11-30T04:53:06;49.17;;;24.88;;
22849;SDS011;11591;44.792;10.358;2022-11-30T04:55:32;46.88;;;25.08;;
22849;SDS011;11591;44.792;10.358;2022-11-30T04:57:58;51.85;;;25.17;;
22849;SDS011;11591;44.792;10.358;2022-11-30T05:00:24;46.97;;;24.55;;
22849;SDS011;11591;44.792;10.358;2022-11-30T05:02:50;48.03;;;25.70;;
22849;SDS011;11591;44.792;10.358;2022-11-30T05:05:15;52.00;;;25.20;;
22849;SDS011;11591;44.792;10.358;2022-11-30T05:07:41;48.20;;;24.55;;
22849;SDS011;11591;44.792;10.358;2022-11-30T05:10:07;48.05;;;24.70;;
22849;SDS011;11591;44.792;10.358;2022-11-30T05:12:34;52.03;;;24.42;;
22849;SDS011;11591;44.792;10.358;2022-11-30T05:15:00;47.85;;;24.77;;
22849;SDS011;11591;44.792;10.358;2022-11-30T05:17:26;51.15;;;24.95;;
22849;SDS011;11591;44.792;10.358;2022-11-30T05:19:52;46.55;;;24.17;;
22849;SDS011;11591;44.792;10.358;2022-11-30T05:22:17;51.63;;;25.25;;
22849;SDS011;11591;44.792;10.358;2022-11-30T05:24:43;50.85;;;25.33;;
22849;SDS011;11591;44.792;10.358;2022-11-30T05:27:09;51.92;;;25.70;;
22849;SDS011;11591;44.792;10.358;2022-11-30T05:29:34;46.40;;;24.35;;
22849;SDS011;11591;44.792;10.358;2022-11-30T05:32:01;49.50;;;24.83;;
22849;SDS011;11591;44.792;10.358;2022-11-30T05:34:27;52.60;;;26.05;;
22849;SDS011;11591;44.792;10.358;2022-11-30T05:36:53;51.40;;;25.88;;
22849;SDS011;11591;44.792;10.358;2022-11-30T05:39:19;49.22;;;25.98;;
22849;SDS011;11591;44.792;10.358;2022-11-30T05:41:44;51.90;;;26.02;;
22849;SDS011;11591;44.792;10.358;2022-11-30T05:44:10;54.50;;;26.25;;
22849;SDS011;11591;44.792;10.358;2022-11-30T05:46:37;47.78;;;25.38;;
22849;SDS011;11591;44.792;10.358;2022-11-30T05:49:03;49.17;;;24.65;;
22849;SDS011;11591;44.792;10.358;2022-11-30T05:51:28;50.53;;;25.90;;
22849;SDS011;11591;44.792;10.358;2022-11-30T05:53:54;50.55;;;25.08;;
22849;SDS011;11591;44.792;10.358;2022-11-30T05:56:20;51.08;;;24.50;;
22849;SDS011;11591;44.792;10.358;2022-11-30T05:58:46;49.78;;;25.95;;
22849;SDS011;11591;44.792;10.358;2022-11-30T06:01:19;48.17;;;25.17;;
22849;SDS011;11591;44.792;10.358;2022-11-30T06:03:46;49.83;;;24.35;;
22849;SDS011;11591;44.792;10.358;2022-11-30T06:06:31;49.40;;;24.65;;
22849;SDS011;11591;44.792;10.358;2022-11-30T06:08:57;51.92;;;25.00;;
22849;SDS011;11591;44.792;10.358;2022-11-30T06:11:23;44.75;;;24.17;;
22849;SDS011;11591;44.792;10.358;2022-11-30T06:13:49;48.88;;;26.25;;
22849;SDS011;11591;44.792;10.358;2022-11-30T06:16:14;47.38;;;25.73;;
22849;SDS011;11591;44.792;10.358;2022-11-30T06:18:40;46.53;;;26.20;;
22849;SDS011;11591;44.792;10.358;2022-11-30T06:21:07;52.67;;;27.05;;
22849;SDS011;11591;44.792;10.358;2022-11-30T06:23:35;49.13;;;24.98;;
22849;SDS011;11591;44.792;10.358;2022-11-30T06:26:02;50.70;;;25.33;;
22849;SDS011;11591;44.792;10.358;2022-11-30T06:28:33;51.83;;;25.75;;
22849;SDS011;11591;44.792;10.358;2022-11-30T06:31:00;47.75;;;24.48;;
22849;SDS011;11591;44.792;10.358;2022-11-30T06:33:27;51.08;;;25.20;;
22849;SDS011;11591;44.792;10.358;2022-11-30T06:35:53;52.72;;;26.02;;
22849;SDS011;11591;44.792;10.358;2022-11-30T06:38:19;54.83;;;26.00;;
22849;SDS011;11591;44.792;10.358;2022-11-30T06:40:46;49.75;;;25.75;;
22849;SDS011;11591;44.792;10.358;2022-11-30T06:43:12;47.38;;;25.67;;
22849;SDS011;11591;44.792;10.358;2022-11-30T06:45:38;47.83;;;24.48;;
22849;SDS011;11591;44.792;10.358;2022-11-30T06:48:04;49.95;;;25.40;;
22849;SDS011;11591;44.792;10.358;2022-11-30T06:50:30;49.17;;;25.30;;
22849;SDS011;11591;44.792;10.358;2022-11-30T06:52:55;47.28;;;25.00;;
22849;SDS011;11591;44.792;10.358;2022-11-30T06:55:22;49.33;;;24.80;;
22849;SDS011;11591;44.792;10.358;2022-11-30T06:57:48;47.35;;;25.05;;
22849;SDS011;11591;44.792;10.358;2022-11-30T07:00:14;47.67;;;24.98;;
22849;SDS011;11591;44.792;10.358;2022-11-30T07:02:41;44.63;;;24.65;;
22849;SDS011;11591;44.792;10.358;2022-11-30T07:05:07;47.35;;;25.35;;
22849;SDS011;11591;44.792;10.358;2022-11-30T07:07:33;46.20;;;24.83;;
22849;SDS011;11591;44.792;10.358;2022-11-30T07:09:58;48.30;;;24.13;;
22849;SDS011;11591;44.792;10.358;2022-11-30T07:12:24;47.42;;;24.63;;
22849;SDS011;11591;44.792;10.358;2022-11-30T07:14:50;51.38;;;24.95;;
22849;SDS011;11591;44.792;10.358;2022-11-30T07:17:18;48.80;;;24.58;;
22849;SDS011;11591;44.792;10.358;2022-11-30T07:19:44;44.78;;;23.08;;
22849;SDS011;11591;44.792;10.358;2022-11-30T07:22:11;53.13;;;24.42;;
22849;SDS011;11591;44.792;10.358;2022-11-30T07:24:37;48.25;;;24.48;;
22849;SDS011;11591;44.792;10.358;2022-11-30T07:27:21;48.92;;;23.05;;
22849;SDS011;11591;44.792;10.358;2022-11-30T07:29:48;47.83;;;24.23;;
22849;SDS011;11591;44.792;10.358;2022-11-30T07:32:16;55.90;;;25.55;;
22849;SDS011;11591;44.792;10.358;2022-11-30T07:34:43;47.67;;;24.05;;
22849;SDS011;11591;44.792;10.358;2022-11-30T07:37:08;53.20;;;25.75;;
22849;SDS011;11591;44.792;10.358;2022-11-30T07:39:34;53.75;;;24.90;;
22849;SDS011;11591;44.792;10.358;2022-11-30T07:42:00;57.10;;;27.80;;
22849;SDS011;11591;44.792;10.358;2022-11-30T07:44:26;52.83;;;25.23;;
22849;SDS011;11591;44.792;10.358;2022-11-30T07:46:52;50.10;;;24.73;;
22849;SDS011;11591;44.792;10.358;2022-11-30T07:49:17;54.75;;;25.15;;
22849;SDS011;11591;44.792;10.358;2022-11-30T07:51:43;55.97;;;25.17;;
22849;SDS011;11591;44.792;10.358;2022-11-30T07:54:09;52.17;;;24.55;;
22849;SDS011;11591;44.792;10.358;2022-11-30T07:56:35;59.83;;;26.50;;
22849;SDS011;11591;44.792;10.358;2022-11-30T07:59:01;53.88;;;25.77;;
22849;SDS011;11591;44.792;10.358;2022-11-30T08:01:28;53.25;;;25.58;;
22849;SDS011;11591;44.792;10.358;2022-11-30T08:03:56;51.67;;;24.27;;
22849;SDS011;11591;44.792;10.358;2022-11-30T08:06:23;56.10;;;26.15;;
22849;SDS011;11591;44.792;10.358;2022-11-30T08:08:52;55.92;;;25.80;;
22849;SDS011;11591;44.792;10.358;2022-11-30T08:11:19;50.15;;;23.90;;
22849;SDS011;11591;44.792;10.358;2022-11-30T08:13:47;47.72;;;23.00;;
22849;SDS011;11591;44.792;10.358;2022-11-30T08:16:14;55.47;;;25.20;;
22849;SDS011;11591;44.792;10.358;2022-11-30T08:18:41;53.90;;;25.23;;
22849;SDS011;11591;44.792;10.358;2022-11-30T08:21:08;49.28;;;24.05;;
22849;SDS011;11591;44.792;10.358;2022-11-30T08:23:36;52.70;;;24.27;;
22849;SDS011;11591;44.792;10.358;2022-11-30T08:26:05;52.22;;;25.27;;
22849;SDS011;11591;44.792;10.358;2022-11-30T08:28:33;55.47;;;26.27;;
22849;SDS011;11591;44.792;10.358;2022-11-30T08:31:02;59.80;;;28.23;;
22849;SDS011;11591;44.792;10.358;2022-11-30T08:33:34;50.55;;;25.55;;
22849;SDS011;11591;44.792;10.358;2022-11-30T08:36:10;52.30;;;24.38;;
22849;SDS011;11591;44.792;10.358;2022-11-30T08:38:36;51.25;;;24.00;;
22849;SDS011;11591;44.792;10.358;2022-11-30T08:41:03;52.40;;;24.52;;
22849;SDS011;11591;44.792;10.358;2022-11-30T08:43:30;58.03;;;25.45;;
22849;SDS011;11591;44.792;10.358;2022-11-30T08:45:56;54.17;;;25.25;;
22849;SDS011;11591;44.792;10.358;2022-11-30T08:48:22;57.17;;;25.30;;
22849;SDS011;11591;44.792;10.358;2022-11-30T08:50:48;49.55;;;24.50;;
22849;SDS011;11591;44.792;10.358;2022-11-30T08:53:14;57.53;;;25.92;;
22849;SDS011;11591;44.792;10.358;2022-11-30T08:55:40;54.53;;;25.27;;
22849;SDS011;11591;44.792;10.358;2022-11-30T08:58:06;54.15;;;26.10;;
22849;SDS011;11591;44.792;10.358;2022-11-30T09:00:31;57.22;;;25.88;;
22849;SDS011;11591;44.792;10.358;2022-11-30T09:02:57;55.65;;;25.65;;
22849;SDS011;11591;44.792;10.358;2022-11-30T09:05:23;55.50;;;26.77;;
22849;SDS011;11591;44.792;10.358;2022-11-30T09:07:49;54.97;;;26.50;;
22849;SDS011;11591;44.792;10.358;2022-11-30T09:10:15;59.85;;;27.75;;
22849;SDS011;11591;44.792;10.358;2022-11-30T09:12:41;64.35;;;28.08;;
22849;SDS011;11591;44.792;10.358;2022-11-30T09:15:07;63.15;;;28.90;;
22849;SDS011;11591;44.792;10.358;2022-11-30T09:17:34;57.28;;;28.00;;
22849;SDS011;11591;44.792;10.358;2022-11-30T09:20:00;52.65;;;26.42;;
22849;SDS011;11591;44.792;10.358;2022-11-30T09:22:26;66.90;;;30.55;;
22849;SDS011;11591;44.792;10.358;2022-11-30T09:24:52;61.53;;;30.02;;
22849;SDS011;11591;44.792;10.358;2022-11-30T09:27:18;62.83;;;29.17;;
22849;SDS011;11591;44.792;10.358;2022-11-30T09:29:44;57.75;;;27.90;;
22849;SDS011;11591;44.792;10.358;2022-11-30T09:32:11;65.45;;;29.65;;
22849;SDS011;11591;44.792;10.358;2022-11-30T09:34:37;60.28;;;28.85;;
22849;SDS011;11591;44.792;10.358;2022-11-30T09:37:03;62.08;;;27.55;;
22849;SDS011;11591;44.792;10.358;2022-11-30T09:39:29;61.25;;;29.42;;
22849;SDS011;11591;44.792;10.358;2022-11-30T09:50:14;60.67;;;29.27;;
22849;SDS011;11591;44.792;10.358;2022-11-30T09:52:43;64.22;;;30.90;;
22849;SDS011;11591;44.792;10.358;2022-11-30T09:55:14;59.30;;;28.77;;
22849;SDS011;11591;44.792;10.358;2022-11-30T09:58:03;57.97;;;30.00;;
22849;SDS011;11591;44.792;10.358;2022-11-30T10:00:31;63.40;;;30.67;;
22849;SDS011;11591;44.792;10.358;2022-11-30T10:03:00;63.20;;;29.40;;
22849;SDS011;11591;44.792;10.358;2022-11-30T10:06:03;58.35;;;28.50;;
22849;SDS011;11591;44.792;10.358;2022-11-30T10:22:23;53.13;;;25.45;;
22849;SDS011;11591;44.792;10.358;2022-11-30T10:25:08;52.78;;;25.08;;
22849;SDS011;11591;44.792;10.358;2022-11-30T10:27:49;53.47;;;26.58;;
22849;SDS011;11591;44.792;10.358;2022-11-30T10:30:21;59.17;;;27.35;;
22849;SDS011;11591;44.792;10.358;2022-11-30T10:32:55;51.90;;;26.63;;
22849;SDS011;11591;44.792;10.358;2022-11-30T10:35:36;55.95;;;27.58;;
22849;SDS011;11591;44.792;10.358;2022-11-30T10:38:13;52.83;;;26.60;;
22849;SDS011;11591;44.792;10.358;2022-11-30T10:40:52;56.10;;;27.27;;
22849;SDS011;11591;44.792;10.358;2022-11-30T10:43:31;55.70;;;27.67;;
22849;SDS011;11591;44.792;10.358;2022-11-30T10:46:21;55.13;;;27.88;;
22849;SDS011;11591;44.792;10.358;2022-11-30T10:48:57;56.00;;;27.85;;
22849;SDS011;11591;44.792;10.358;2022-11-30T10:51:24;62.55;;;29.67;;
22849;SDS011;11591;44.792;10.358;2022-11-30T10:53:51;58.53;;;27.80;;
22849;SDS011;11591;44.792;10.358;2022-11-30T10:56:17;55.72;;;26.55;;
22849;SDS011;11591;44.792;10.358;2022-11-30T10:58:53;51.33;;;26.30;;
22849;SDS011;11591;44.792;10.358;2022-11-30T11:01:34;55.80;;;27.88;;
22849;SDS011;11591;44.792;10.358;2022-11-30T11:09:32;51.03;;;24.00;;
22849;SDS011;11591;44.792;10.358;2022-11-30T11:12:25;51.60;;;24.52;;
22849;SDS011;11591;44.792;10.358;2022-11-30T11:15:08;56.85;;;23.45;;
22849;SDS011;11591;44.792;10.358;2022-11-30T11:17:43;48.95;;;21.33;;
22849;SDS011;11591;44.792;10.358;2022-11-30T11:22:55;36.25;;;16.27;;
22849;SDS011;11591;44.792;10.358;2022-11-30T11:25:23;34.22;;;15.43;;
22849;SDS011;11591;44.792;10.358;2022-11-30T11:27:57;43.47;;;19.35;;
22849;SDS011;11591;44.792;10.358;2022-11-30T11:30:33;36.05;;;16.98;;
22849;SDS011;11591;44.792;10.358;2022-11-30T11:33:15;36.33;;;17.08;;
22849;SDS011;11591;44.792;10.358;2022-11-30T11:35:48;39.13;;;17.60;;
22849;SDS011;11591;44.792;10.358;2022-11-30T11:38:40;38.35;;;18.55;;
22849;SDS011;11591;44.792;10.358;2022-11-30T11:49:34;36.10;;;18.63;;
22849;SDS011;11591;44.792;10.358;2022-11-30T11:52:05;43.70;;;19.92;;
22849;SDS011;11591;44.792;10.358;2022-11-30T11:54:41;38.05;;;18.80;;
22849;SDS011;11591;44.792;10.358;2022-11-30T11:57:14;40.78;;;20.15;;
22849;SDS011;11591;44.792;10.358;2022-11-30T12:04:46;35.80;;;17.33;;
22849;SDS011;11591;44.792;10.358;2022-11-30T12:07:32;36.97;;;17.33;;
22849;SDS011;11591;44.792;10.358;2022-11-30T12:12:55;39.88;;;17.88;;
22849;SDS011;11591;44.792;10.358;2022-11-30T12:15:43;37.15;;;17.85;;
22849;SDS011;11591;44.792;10.358;2022-11-30T12:18:36;39.20;;;19.30;;
22849;SDS011;11591;44.792;10.358;2022-11-30T12:21:21;34.35;;;15.55;;
22849;SDS011;11591;44.792;10.358;2022-11-30T12:27:00;32.17;;;15.27;;
22849;SDS011;11591;44.792;10.358;2022-11-30T12:57:46;34.85;;;15.93;;
22849;SDS011;11591;44.792;10.358;2022-11-30T13:00:23;33.63;;;16.35;;
22849;SDS011;11591;44.792;10.358;2022-11-30T13:06:04;35.45;;;16.52;;
22849;SDS011;11591;44.792;10.358;2022-11-30T13:08:41;29.63;;;15.35;;
22849;SDS011;11591;44.792;10.358;2022-11-30T13:11:16;31.35;;;15.50;;
22849;SDS011;11591;44.792;10.358;2022-11-30T13:13:50;32.45;;;15.88;;
22849;SDS011;11591;44.792;10.358;2022-11-30T13:16:19;34.92;;;15.35;;
22849;SDS011;11591;44.792;10.358;2022-11-30T13:18:47;31.83;;;14.15;;
22849;SDS011;11591;44.792;10.358;2022-11-30T13:21:21;31.48;;;14.55;;
22849;SDS011;11591;44.792;10.358;2022-11-30T13:24:05;30.42;;;14.65;;
22849;SDS011;11591;44.792;10.358;2022-11-30T13:26:41;33.47;;;15.02;;
22849;SDS011;11591;44.792;10.358;2022-11-30T13:29:15;32.92;;;16.08;;
22849;SDS011;11591;44.792;10.358;2022-11-30T13:32:09;31.92;;;14.80;;
22849;SDS011;11591;44.792;10.358;2022-11-30T13:34:37;30.58;;;14.85;;
22849;SDS011;11591;44.792;10.358;2022-11-30T13:39:46;34.47;;;15.60;;
22849;SDS011;11591;44.792;10.358;2022-11-30T13:47:36;29.35;;;14.23;;
22849;SDS011;11591;44.792;10.358;2022-11-30T13:50:05;33.45;;;14.82;;
22849;SDS011;11591;44.792;10.358;2022-11-30T13:58:14;32.78;;;15.30;;
22849;SDS011;11591;44.792;10.358;2022-11-30T14:05:50;33.85;;;14.68;;
22849;SDS011;11591;44.792;10.358;2022-11-30T14:08:28;35.67;;;15.85;;
22849;SDS011;11591;44.792;10.358;2022-11-30T14:13:41;32.72;;;14.00;;
22849;SDS011;11591;44.792;10.358;2022-11-30T14:16:24;31.67;;;14.23;;
22849;SDS011;11591;44.792;10.358;2022-11-30T14:18:54;34.80;;;14.32;;
22849;SDS011;11591;44.792;10.358;2022-11-30T14:21:31;30.63;;;13.88;;
22849;SDS011;11591;44.792;10.358;2022-11-30T14:24:13;28.83;;;12.65;;
22849;SDS011;11591;44.792;10.358;2022-11-30T14:26:44;30.58;;;13.45;;
22849;SDS011;11591;44.792;10.358;2022-11-30T14:29:20;33.92;;;14.57;;
22849;SDS011;11591;44.792;10.358;2022-11-30T14:32:00;34.40;;;15.45;;
22849;SDS011;11591;44.792;10.358;2022-11-30T14:34:34;37.92;;;16.92;;
22849;SDS011;11591;44.792;10.358;2022-11-30T14:37:03;43.72;;;19.55;;
22849;SDS011;11591;44.792;10.358;2022-11-30T14:39:44;41.20;;;18.35;;
22849;SDS011;11591;44.792;10.358;2022-11-30T14:42:21;38.03;;;18.13;;
22849;SDS011;11591;44.792;10.358;2022-11-30T14:44:51;35.08;;;15.75;;
22849;SDS011;11591;44.792;10.358;2022-11-30T14:47:25;32.70;;;14.63;;
22849;SDS011;11591;44.792;10.358;2022-11-30T14:49:53;31.70;;;14.30;;
22849;SDS011;11591;44.792;10.358;2022-11-30T15:00:45;28.92;;;14.15;;
22849;SDS011;11591;44.792;10.358;2022-11-30T15:03:31;28.40;;;14.27;;
22849;SDS011;11591;44.792;10.358;2022-11-30T15:05:58;30.25;;;15.13;;
22849;SDS011;11591;44.792;10.358;2022-11-30T15:11:06;33.28;;;15.45;;
22849;SDS011;11591;44.792;10.358;2022-11-30T15:13:41;30.08;;;14.50;;
22849;SDS011;11591;44.792;10.358;2022-11-30T15:16:20;32.60;;;15.48;;
22849;SDS011;11591;44.792;10.358;2022-11-30T15:18:49;26.60;;;14.32;;
22849;SDS011;11591;44.792;10.358;2022-11-30T15:21:19;31.92;;;14.77;;
22849;SDS011;11591;44.792;10.358;2022-11-30T15:23:56;30.70;;;15.25;;
22849;SDS011;11591;44.792;10.358;2022-11-30T15:26:25;31.00;;;14.32;;
22849;SDS011;11591;44.792;10.358;2022-11-30T15:28:56;35.65;;;15.27;;
22849;SDS011;11591;44.792;10.358;2022-11-30T15:31:26;31.58;;;15.18;;
22849;SDS011;11591;44.792;10.358;2022-11-30T15:33:57;30.35;;;14.85;;
22849;SDS011;11591;44.792;10.358;2022-11-30T15:36:23;30.73;;;14.27;;
22849;SDS011;11591;44.792;10.358;2022-11-30T15:38:51;33.95;;;14.88;;
22849;SDS011;11591;44.792;10.358;2022-11-30T15:41:19;37.45;;;14.63;;
22849;SDS011;11591;44.792;10.358;2022-11-30T15:43:48;31.63;;;14.65;;
22849;SDS011;11591;44.792;10.358;2022-11-30T15:51:37;33.90;;;14.23;;
22849;SDS011;11591;44.792;10.358;2022-11-30T15:54:04;38.05;;;16.15;;
22849;SDS011;11591;44.792;10.358;2022-11-30T15:56:30;73.07;;;29.67;;
22849;SDS011;11591;44.792;10.358;2022-11-30T15:59:07;49.83;;;19.83;;
22849;SDS011;11591;44.792;10.358;2022-11-30T16:01:56;37.10;;;15.45;;
22849;SDS011;11591;44.792;10.358;2022-11-30T16:07:26;37.67;;;16.90;;
22849;SDS011;11591;44.792;10.358;2022-11-30T16:12:52;80.95;;;31.83;;
22849;SDS011;11591;44.792;10.358;2022-11-30T16:15:21;44.10;;;18.67;;
22849;SDS011;11591;44.792;10.358;2022-11-30T16:17:47;42.75;;;16.80;;
22849;SDS011;11591;44.792;10.358;2022-11-30T16:20:14;43.17;;;16.27;;
22849;SDS011;11591;44.792;10.358;2022-11-30T16:22:41;38.63;;;16.30;;
22849;SDS011;11591;44.792;10.358;2022-11-30T16:25:15;36.78;;;15.80;;
22849;SDS011;11591;44.792;10.358;2022-11-30T16:27:42;37.42;;;16.30;;
22849;SDS011;11591;44.792;10.358;2022-11-30T16:30:15;47.90;;;18.88;;
22849;SDS011;11591;44.792;10.358;2022-11-30T16:32:43;32.72;;;15.20;;
22849;SDS011;11591;44.792;10.358;2022-11-30T16:37:44;33.88;;;14.45;;
22849;SDS011;11591;44.792;10.358;2022-11-30T16:40:10;39.17;;;15.48;;
22849;SDS011;11591;44.792;10.358;2022-11-30T16:42:37;31.73;;;14.18;;
22849;SDS011;11591;44.792;10.358;2022-11-30T16:45:03;34.97;;;15.13;;
22849;SDS011;11591;44.792;10.358;2022-11-30T16:47:29;32.63;;;15.02;;
22849;SDS011;11591;44.792;10.358;2022-11-30T16:49:55;43.17;;;15.90;;